createdAt,value
2018-09-19T00:00:55.091Z,14.70
2018-09-19T00:03:23.982Z,14.60
2018-09-19T00:05:52.531Z,14.60
2018-09-19T00:08:21.070Z,14.60
2018-09-19T00:10:50.013Z,14.50
2018-09-19T00:13:18.581Z,14.50
2018-09-19T00:15:47.226Z,14.50
2018-09-19T00:18:15.866Z,14.50
2018-09-19T00:20:44.330Z,14.40
2018-09-19T00:23:12.907Z,14.30
2018-09-19T00:25:41.806Z,14.30
2018-09-19T00:28:10.442Z,14.40
2018-09-19T00:30:39.180Z,14.40
2018-09-19T00:33:07.923Z,14.30
2018-09-19T00:35:36.674Z,14.20
2018-09-19T00:38:05.222Z,14.20
2018-09-19T00:40:33.867Z,14.20
2018-09-19T00:43:02.403Z,14.10
2018-09-19T00:45:31.004Z,14.00
2018-09-19T00:47:59.628Z,14.00
2018-09-19T00:50:28.330Z,13.90
2018-09-19T00:52:56.856Z,13.90
2018-09-19T00:55:25.715Z,13.90
2018-09-19T00:57:54.216Z,13.90
2018-09-19T01:00:22.732Z,13.90
2018-09-19T01:02:51.298Z,13.90
2018-09-19T01:05:19.846Z,13.80
2018-09-19T01:07:48.438Z,13.80
2018-09-19T01:10:16.998Z,13.70
2018-09-19T01:12:45.494Z,13.60
2018-09-19T01:15:14.115Z,13.50
2018-09-19T01:17:42.728Z,13.50
2018-09-19T01:20:11.379Z,13.60
2018-09-19T01:22:39.891Z,13.60
2018-09-19T01:25:08.509Z,13.70
2018-09-19T01:27:37.408Z,13.70
2018-09-19T01:30:06.299Z,13.50
2018-09-19T01:32:35.205Z,13.50
2018-09-19T01:35:04.124Z,13.40
2018-09-19T01:37:32.578Z,13.40
2018-09-19T01:40:01.200Z,13.20
2018-09-19T01:42:29.749Z,13.30
2018-09-19T01:44:58.262Z,13.30
2018-09-19T01:47:27.091Z,13.30
2018-09-19T01:49:56.058Z,13.30
2018-09-19T01:52:24.598Z,13.30
2018-09-19T01:54:53.160Z,13.30
2018-09-19T01:57:21.719Z,13.20
2018-09-19T01:59:50.449Z,13.30
2018-09-19T02:02:18.982Z,13.20
2018-09-19T02:04:47.555Z,13.20
2018-09-19T02:07:16.086Z,13.20
2018-09-19T02:09:44.719Z,13.20
2018-09-19T02:12:13.283Z,13.20
2018-09-19T02:14:41.831Z,13.20
2018-09-19T02:17:10.473Z,13.20
2018-09-19T02:19:38.966Z,13.20
2018-09-19T02:22:07.555Z,13.20
2018-09-19T02:24:36.431Z,13.30
2018-09-19T02:27:04.994Z,13.40
2018-09-19T02:29:33.716Z,13.30
2018-09-19T02:32:02.259Z,13.30
2018-09-19T02:34:31.267Z,13.30
2018-09-19T02:36:59.799Z,13.30
2018-09-19T02:39:28.451Z,13.20
2018-09-19T02:41:56.975Z,13.10
2018-09-19T02:44:25.502Z,13.10
2018-09-19T02:46:53.967Z,13.10
2018-09-19T02:49:22.501Z,13.10
2018-09-19T02:51:51.103Z,13.10
2018-09-19T02:54:19.634Z,13.10
2018-09-19T02:56:48.414Z,12.90
2018-09-19T02:59:17.134Z,13.00
2018-09-19T03:01:45.768Z,12.80
2018-09-19T03:04:14.277Z,12.80
2018-09-19T03:06:42.771Z,12.90
2018-09-19T03:09:11.295Z,13.10
2018-09-19T03:11:40.115Z,12.90
2018-09-19T03:14:08.836Z,12.70
2018-09-19T03:16:37.463Z,12.50
2018-09-19T03:19:05.952Z,12.60
2018-09-19T03:21:34.536Z,12.70
2018-09-19T03:24:03.489Z,12.70
2018-09-19T03:26:32.038Z,12.70
2018-09-19T03:29:00.544Z,12.70
2018-09-19T03:31:29.557Z,12.70
2018-09-19T03:33:58.192Z,12.60
2018-09-19T03:36:26.887Z,12.60
2018-09-19T03:38:55.739Z,12.40
2018-09-19T03:41:24.510Z,12.40
2018-09-19T03:43:53.010Z,12.40
2018-09-19T03:46:21.633Z,12.50
2018-09-19T03:48:50.176Z,12.50
2018-09-19T03:51:18.707Z,12.50
2018-09-19T03:53:47.297Z,12.50
2018-09-19T03:56:16.102Z,12.50
2018-09-19T03:58:45.117Z,12.50
2018-09-19T04:01:13.831Z,12.50
2018-09-19T04:03:42.449Z,12.50
2018-09-19T04:06:10.993Z,12.40
2018-09-19T04:08:39.785Z,12.30
2018-09-19T04:11:08.290Z,12.20
2018-09-19T04:13:36.842Z,12.10
2018-09-19T04:16:05.607Z,12.10
2018-09-19T04:18:34.167Z,12.20
2018-09-19T04:21:02.683Z,12.30
2018-09-19T04:23:31.390Z,12.10
2018-09-19T04:26:00.377Z,12.20
2018-09-19T04:28:29.083Z,12.10
2018-09-19T04:30:57.803Z,12.00
2018-09-19T04:33:26.305Z,11.90
2018-09-19T04:35:55.239Z,12.00
2018-09-19T04:38:23.971Z,11.90
2018-09-19T04:40:52.522Z,12.00
2018-09-19T04:43:21.072Z,11.90
2018-09-19T04:45:49.789Z,11.80
2018-09-19T04:48:18.444Z,11.70
2018-09-19T04:50:47.287Z,11.90
2018-09-19T04:53:15.944Z,12.00
2018-09-19T04:55:44.624Z,11.90
2018-09-19T04:58:13.116Z,12.00
2018-09-19T05:00:41.655Z,12.00
2018-09-19T05:03:10.399Z,11.80
2018-09-19T05:05:39.124Z,11.70
2018-09-19T05:08:08.017Z,11.80
2018-09-19T05:10:36.881Z,11.80
2018-09-19T05:13:05.517Z,11.80
2018-09-19T05:15:34.083Z,11.80
2018-09-19T05:18:02.699Z,11.80
2018-09-19T05:20:31.491Z,11.80
2018-09-19T05:23:00.081Z,11.80
2018-09-19T05:25:28.682Z,11.90
2018-09-19T05:27:57.206Z,12.00
2018-09-19T05:30:25.940Z,12.10
2018-09-19T05:32:54.472Z,12.30
2018-09-19T05:35:23.351Z,12.20
2018-09-19T05:37:52.211Z,12.10
2018-09-19T05:40:20.715Z,12.10
2018-09-19T05:42:49.591Z,12.10
2018-09-19T05:45:18.164Z,12.10
2018-09-19T05:47:46.670Z,12.10
2018-09-19T05:50:15.707Z,12.10
2018-09-19T05:52:44.212Z,12.10
2018-09-19T05:55:12.735Z,12.30
2018-09-19T05:57:41.276Z,12.30
2018-09-19T06:00:10.029Z,12.40
2018-09-19T06:02:38.775Z,12.50
2018-09-19T06:05:07.659Z,12.50
2018-09-19T06:07:36.213Z,12.60
2018-09-19T06:10:05.057Z,12.60
2018-09-19T06:12:33.831Z,12.70
2018-09-19T06:15:02.382Z,12.80
2018-09-19T06:17:31.292Z,12.90
2018-09-19T06:19:59.939Z,13.10
2018-09-19T06:22:28.570Z,13.30
2018-09-19T06:24:57.090Z,13.40
2018-09-19T06:27:25.729Z,13.40
2018-09-19T06:29:54.285Z,13.50
2018-09-19T06:32:22.844Z,13.60
2018-09-19T06:34:51.635Z,13.70
2018-09-19T06:37:20.341Z,13.70
2018-09-19T06:39:48.851Z,13.70
2018-09-19T06:42:17.625Z,13.90
2018-09-19T06:44:46.133Z,13.90
2018-09-19T06:47:14.658Z,14.10
2018-09-19T06:49:43.175Z,14.10
2018-09-19T06:52:11.819Z,14.10
2018-09-19T06:54:40.344Z,14.20
2018-09-19T06:57:08.958Z,14.40
2018-09-19T06:59:37.588Z,14.50
2018-09-19T07:02:06.722Z,14.60
2018-09-19T07:04:35.358Z,14.80
2018-09-19T07:07:04.046Z,14.90
2018-09-19T07:09:32.864Z,15.00
2018-09-19T07:12:01.420Z,15.00
2018-09-19T07:14:30.273Z,15.10
2018-09-19T07:16:59.199Z,15.00
2018-09-19T07:19:28.025Z,15.00
2018-09-19T07:21:56.729Z,15.10
2018-09-19T07:24:25.227Z,15.30
2018-09-19T07:26:54.004Z,15.40
2018-09-19T07:29:22.792Z,15.50
2018-09-19T07:31:51.478Z,15.70
2018-09-19T07:34:20.082Z,15.80
2018-09-19T07:36:48.697Z,15.90
2018-09-19T07:39:17.338Z,15.90
2018-09-19T07:41:45.887Z,16.10
2018-09-19T07:44:14.468Z,16.20
2018-09-19T07:46:43.053Z,16.30
2018-09-19T07:49:11.581Z,16.40
2018-09-19T07:51:40.241Z,16.50
2018-09-19T07:54:09.108Z,16.70
2018-09-19T07:56:37.933Z,16.80
2018-09-19T07:59:06.801Z,16.90
2018-09-19T08:01:36.081Z,17.00
2018-09-19T08:04:05.018Z,17.20
2018-09-19T08:06:33.767Z,17.30
2018-09-19T08:09:02.474Z,17.50
2018-09-19T08:11:30.961Z,17.60
2018-09-19T08:13:59.911Z,17.70
2018-09-19T08:16:28.410Z,17.80
2018-09-19T08:18:56.958Z,17.90
2018-09-19T08:21:26.005Z,18.10
2018-09-19T08:23:54.995Z,18.30
2018-09-19T08:26:23.586Z,18.50
2018-09-19T08:28:52.240Z,18.60
2018-09-19T08:31:21.228Z,18.80
2018-09-19T08:33:50.025Z,18.90
2018-09-19T08:36:18.589Z,19.10
2018-09-19T08:38:47.277Z,19.30
2018-09-19T08:41:15.770Z,19.40
2018-09-19T08:43:44.471Z,19.60
2018-09-19T08:46:13.348Z,19.80
2018-09-19T08:48:41.879Z,20.10
2018-09-19T08:51:10.877Z,20.40
2018-09-19T08:53:39.645Z,20.70
2018-09-19T08:56:08.420Z,20.90
2018-09-19T08:58:37.047Z,21.10
2018-09-19T09:01:05.888Z,21.40
2018-09-19T09:03:34.581Z,21.60
2018-09-19T09:06:03.186Z,21.80
2018-09-19T09:08:31.839Z,22.00
2018-09-19T09:11:00.638Z,22.20
2018-09-19T09:13:29.728Z,22.40
2018-09-19T09:15:58.593Z,22.70
2018-09-19T09:18:27.404Z,23.00
2018-09-19T09:20:56.161Z,23.20
2018-09-19T09:23:24.701Z,23.40
2018-09-19T09:25:54.108Z,23.60
2018-09-19T09:28:22.880Z,24.00
2018-09-19T09:30:51.643Z,24.10
2018-09-19T09:33:20.276Z,24.10
2018-09-19T09:35:48.937Z,24.50
2018-09-19T09:38:17.531Z,24.90
2018-09-19T09:40:46.323Z,25.30
2018-09-19T09:43:15.038Z,25.80
2018-09-19T09:45:43.548Z,25.90
2018-09-19T09:48:12.122Z,26.50
2018-09-19T09:50:41.151Z,26.80
2018-09-19T09:53:10.077Z,27.60
2018-09-19T09:55:38.773Z,28.40
2018-09-19T09:58:07.651Z,28.70
2018-09-19T10:00:42.115Z,28.90
2018-09-19T10:03:12.038Z,28.70
2018-09-19T10:05:41.384Z,28.10
2018-09-19T10:08:10.014Z,28.80
2018-09-19T10:10:39.591Z,29.50
2018-09-19T10:13:08.379Z,29.90
2018-09-19T10:15:37.075Z,29.80
2018-09-19T10:18:05.971Z,29.40
2018-09-19T10:20:34.557Z,29.50
2018-09-19T10:23:03.119Z,29.70
2018-09-19T10:25:31.853Z,29.60
2018-09-19T10:28:00.748Z,29.70
2018-09-19T10:30:29.503Z,29.80
2018-09-19T10:32:58.227Z,30.20
2018-09-19T10:35:26.933Z,30.90
2018-09-19T10:37:55.832Z,30.60
2018-09-19T10:40:24.781Z,30.80
2018-09-19T10:42:53.940Z,30.80
2018-09-19T10:45:22.566Z,30.80
2018-09-19T10:47:51.340Z,31.20
2018-09-19T10:50:20.192Z,31.60
2018-09-19T10:52:48.933Z,31.40
2018-09-19T10:55:17.887Z,31.60
2018-09-19T10:57:46.447Z,30.90
2018-09-19T11:00:14.941Z,29.90
2018-09-19T11:02:43.885Z,30.20
2018-09-19T11:05:12.937Z,30.10
2018-09-19T11:07:41.693Z,30.10
2018-09-19T11:10:10.524Z,29.90
2018-09-19T11:12:39.080Z,29.80
2018-09-19T11:15:07.605Z,30.30
2018-09-19T11:17:36.209Z,30.30
2018-09-19T11:20:05.189Z,30.90
2018-09-19T11:22:33.680Z,32.00
2018-09-19T11:25:02.269Z,31.30
2018-09-19T11:27:30.802Z,31.30
2018-09-19T11:29:59.492Z,30.80
2018-09-19T11:32:28.236Z,31.40
2018-09-19T11:34:56.804Z,32.20
2018-09-19T11:37:25.486Z,32.80
2018-09-19T11:39:54.408Z,33.40
2018-09-19T11:42:23.564Z,33.20
2018-09-19T11:44:52.351Z,32.60
2018-09-19T11:47:21.141Z,32.50
2018-09-19T11:49:49.852Z,31.80
2018-09-19T11:52:18.707Z,29.70
2018-09-19T11:54:47.318Z,29.90
2018-09-19T11:57:16.165Z,29.60
2018-09-19T11:59:45.277Z,29.90
2018-09-19T12:02:14.122Z,30.20
2018-09-19T12:04:42.951Z,30.20
2018-09-19T12:07:11.868Z,30.20
2018-09-19T12:09:40.429Z,30.60
2018-09-19T12:12:09.558Z,31.60
2018-09-19T12:14:38.185Z,32.50
2018-09-19T12:17:07.011Z,32.60
2018-09-19T12:19:36.227Z,33.00
2018-09-19T12:22:05.003Z,32.90
2018-09-19T12:24:33.752Z,33.10
2018-09-19T12:27:02.667Z,33.20
2018-09-19T12:29:31.589Z,31.50
2018-09-19T12:32:00.272Z,31.70
2018-09-19T12:34:28.840Z,31.90
2018-09-19T12:36:57.838Z,30.80
2018-09-19T12:39:26.966Z,30.70
2018-09-19T12:41:55.715Z,31.00
2018-09-19T12:44:24.663Z,31.10
2018-09-19T12:46:53.233Z,31.20
2018-09-19T12:49:22.136Z,32.40
2018-09-19T12:51:51.197Z,33.90
2018-09-19T12:54:19.934Z,34.20
2018-09-19T12:56:48.629Z,33.60
2018-09-19T12:59:17.686Z,33.60
2018-09-19T13:01:46.621Z,33.90
2018-09-19T13:04:15.457Z,34.00
2018-09-19T13:06:44.375Z,34.10
2018-09-19T13:09:12.939Z,34.30
2018-09-19T13:11:41.803Z,33.90
2018-09-19T13:14:10.784Z,33.20
2018-09-19T13:16:39.669Z,33.00
2018-09-19T13:19:08.565Z,32.10
2018-09-19T13:21:37.387Z,31.70
2018-09-19T13:24:06.158Z,31.90
2018-09-19T13:26:35.051Z,31.60
2018-09-19T13:29:03.976Z,31.70
2018-09-19T13:31:32.693Z,32.10
2018-09-19T13:34:01.908Z,32.70
2018-09-19T13:36:30.800Z,33.70
2018-09-19T13:38:59.402Z,33.90
2018-09-19T13:41:28.258Z,34.40
2018-09-19T13:43:56.830Z,34.30
2018-09-19T13:46:26.198Z,34.60
2018-09-19T13:49:02.250Z,34.60
2018-09-19T13:51:31.008Z,34.80
2018-09-19T13:53:59.768Z,35.80
2018-09-19T13:56:28.332Z,35.90
2018-09-19T13:58:57.019Z,35.60
2018-09-19T14:01:25.633Z,34.00
2018-09-19T14:03:54.389Z,33.10
2018-09-19T14:06:23.218Z,33.10
2018-09-19T14:08:52.053Z,33.70
2018-09-19T14:11:20.948Z,34.20
2018-09-19T14:13:50.456Z,34.20
2018-09-19T14:16:19.302Z,33.70
2018-09-19T14:18:48.168Z,34.10
2018-09-19T14:21:17.321Z,33.80
2018-09-19T14:23:46.324Z,34.00
2018-09-19T14:26:15.552Z,32.90
2018-09-19T14:28:44.399Z,32.50
2018-09-19T14:31:13.217Z,33.30
2018-09-19T14:33:42.243Z,34.30
2018-09-19T14:36:11.038Z,35.30
2018-09-19T14:38:39.993Z,35.60
2018-09-19T14:41:09.008Z,35.60
2018-09-19T14:43:37.663Z,35.40
2018-09-19T14:46:06.540Z,35.60
2018-09-19T14:48:35.441Z,35.70
2018-09-19T14:51:04.391Z,35.50
2018-09-19T14:53:33.099Z,35.30
2018-09-19T14:56:02.017Z,34.80
2018-09-19T14:58:30.573Z,35.30
2018-09-19T15:00:59.451Z,35.30
2018-09-19T15:03:28.389Z,35.70
2018-09-19T15:05:57.169Z,35.50
2018-09-19T15:08:25.861Z,35.50
2018-09-19T15:10:54.788Z,34.60
2018-09-19T15:13:23.863Z,34.30
2018-09-19T15:15:53.075Z,33.70
2018-09-19T15:18:21.923Z,33.10
2018-09-19T15:20:51.000Z,32.70
2018-09-19T15:23:19.650Z,32.20
2018-09-19T15:25:48.664Z,32.70
2018-09-19T15:28:17.488Z,33.00
2018-09-19T15:30:46.198Z,33.00
2018-09-19T15:33:15.295Z,33.10
2018-09-19T15:35:44.296Z,33.50
2018-09-19T15:38:13.443Z,33.50
2018-09-19T15:40:42.083Z,33.70
2018-09-19T15:43:10.982Z,34.20
2018-09-19T15:45:39.939Z,34.10
2018-09-19T15:48:08.719Z,33.80
2018-09-19T15:50:37.659Z,34.00
2018-09-19T15:53:06.501Z,33.30
2018-09-19T15:55:35.658Z,32.80
2018-09-19T15:58:04.561Z,32.60
2018-09-19T16:00:33.896Z,32.40
2018-09-19T16:03:02.813Z,32.60
2018-09-19T16:05:31.877Z,32.30
2018-09-19T16:08:00.924Z,31.70
2018-09-19T16:10:29.883Z,31.60
2018-09-19T16:12:58.464Z,31.20
2018-09-19T16:15:27.579Z,31.10
2018-09-19T16:17:56.244Z,30.50
2018-09-19T16:20:25.061Z,30.10
2018-09-19T16:22:53.899Z,29.60
2018-09-19T16:25:22.631Z,29.00
2018-09-19T16:27:51.466Z,28.60
2018-09-19T16:30:20.022Z,28.30
2018-09-19T16:32:48.718Z,28.10
2018-09-19T16:35:17.568Z,27.70
2018-09-19T16:37:46.323Z,27.50
2018-09-19T16:40:14.900Z,27.50
2018-09-19T16:42:43.806Z,27.20
2018-09-19T16:45:12.380Z,27.00
2018-09-19T16:47:41.028Z,26.90
2018-09-19T16:50:09.909Z,26.70
2018-09-19T16:52:38.788Z,26.60
2018-09-19T16:55:07.377Z,26.40
2018-09-19T16:57:36.459Z,26.20
2018-09-19T17:00:06.796Z,26.10
2018-09-19T17:02:36.110Z,25.90
2018-09-19T17:05:05.522Z,25.70
2018-09-19T17:07:34.459Z,25.70
2018-09-19T17:10:03.715Z,25.50
2018-09-19T17:12:32.718Z,25.30
2018-09-19T17:15:01.984Z,25.10
2018-09-19T17:17:30.828Z,25.00
2018-09-19T17:19:59.519Z,24.90
2018-09-19T17:22:28.409Z,24.70
2018-09-19T17:24:56.922Z,24.70
2018-09-19T17:27:26.180Z,24.60
2018-09-19T17:29:55.036Z,24.40
2018-09-19T17:32:23.907Z,24.20
2018-09-19T17:34:52.553Z,24.10
2018-09-19T17:37:21.487Z,23.90
2018-09-19T17:39:50.427Z,23.70
2018-09-19T17:42:19.284Z,23.60
2018-09-19T17:44:48.187Z,23.40
2018-09-19T17:47:17.288Z,23.30
2018-09-19T17:49:46.251Z,23.20
2018-09-19T17:52:15.158Z,23.00
2018-09-19T17:54:44.077Z,22.80
2018-09-19T17:57:12.853Z,22.60
2018-09-19T17:59:42.000Z,22.40
2018-09-19T18:02:10.995Z,22.20
2018-09-19T18:04:39.869Z,22.00
2018-09-19T18:07:08.923Z,21.90
2018-09-19T18:09:38.089Z,21.70
2018-09-19T18:12:06.868Z,21.50
2018-09-19T18:14:35.538Z,21.40
2018-09-19T18:17:04.397Z,21.20
2018-09-19T18:19:33.204Z,21.20
2018-09-19T18:22:02.177Z,21.00
2018-09-19T18:24:31.072Z,20.90
2018-09-19T18:27:00.094Z,20.80
2018-09-19T18:29:29.195Z,20.70
2018-09-19T18:31:58.023Z,20.70
2018-09-19T18:34:26.957Z,20.60
2018-09-19T18:36:55.634Z,20.50
2018-09-19T18:39:24.252Z,20.40
2018-09-19T18:41:53.210Z,20.30
2018-09-19T18:44:22.040Z,20.30
2018-09-19T18:46:51.093Z,20.30
2018-09-19T18:49:20.014Z,20.20
2018-09-19T18:51:48.793Z,20.10
2018-09-19T18:54:20.997Z,20.00
2018-09-19T18:56:50.364Z,20.00
2018-09-19T18:59:19.339Z,19.90
2018-09-19T19:01:48.160Z,19.80
2018-09-19T19:04:16.997Z,19.80
2018-09-19T19:06:46.223Z,19.80
2018-09-19T19:09:14.852Z,19.70
2018-09-19T19:11:43.834Z,19.60
2018-09-19T19:14:12.904Z,19.50
2018-09-19T19:16:41.909Z,19.60
2018-09-19T19:19:10.666Z,19.60
2018-09-19T19:21:39.338Z,19.60
2018-09-19T19:24:08.465Z,19.40
2018-09-19T19:26:37.396Z,19.20
2018-09-19T19:29:06.440Z,19.20
2018-09-19T19:31:35.147Z,19.00
2018-09-19T19:34:04.229Z,19.00
2018-09-19T19:36:33.166Z,19.00
2018-09-19T19:39:02.158Z,18.90
2018-09-19T19:41:30.951Z,19.00
2018-09-19T19:43:59.805Z,18.90
2018-09-19T19:46:28.779Z,18.80
2018-09-19T19:48:57.425Z,18.70
2018-09-19T19:51:26.410Z,18.50
2018-09-19T19:53:55.509Z,18.40
2018-09-19T19:56:24.375Z,18.50
2018-09-19T19:58:53.054Z,18.50
2018-09-19T20:01:22.430Z,18.40
2018-09-19T20:03:51.342Z,18.30
2018-09-19T20:06:20.216Z,18.30
2018-09-19T20:08:48.988Z,18.20
2018-09-19T20:11:17.913Z,18.40
2018-09-19T20:13:46.601Z,18.30
2018-09-19T20:16:15.509Z,18.30
2018-09-19T20:18:44.264Z,18.10
2018-09-19T20:21:13.218Z,18.10
2018-09-19T20:23:42.206Z,18.10
2018-09-19T20:26:11.462Z,18.00
2018-09-19T20:28:40.407Z,17.90
2018-09-19T20:31:09.396Z,17.90
2018-09-19T20:33:38.295Z,17.80
2018-09-19T20:36:06.971Z,17.70
2018-09-19T20:38:35.789Z,17.60
2018-09-19T20:41:04.487Z,17.50
2018-09-19T20:43:33.297Z,17.40
2018-09-19T20:46:02.323Z,17.40
2018-09-19T20:48:30.926Z,17.30
2018-09-19T20:50:59.601Z,17.30
2018-09-19T20:53:28.240Z,17.30
2018-09-19T20:55:56.868Z,17.20
2018-09-19T20:58:25.545Z,17.10
2018-09-19T21:00:54.171Z,17.00
2018-09-19T21:03:22.668Z,17.00
2018-09-19T21:05:51.439Z,17.00
2018-09-19T21:08:20.182Z,16.90
2018-09-19T21:10:49.050Z,16.90
2018-09-19T21:13:17.984Z,16.80
2018-09-19T21:15:46.611Z,16.80
2018-09-19T21:18:15.301Z,16.80
2018-09-19T21:20:43.877Z,16.70
2018-09-19T21:23:13.072Z,16.60
2018-09-19T21:25:41.768Z,16.50
2018-09-19T21:28:10.561Z,16.40
2018-09-19T21:30:39.211Z,16.50
2018-09-19T21:33:07.812Z,16.50
2018-09-19T21:35:36.368Z,16.40
2018-09-19T21:38:05.264Z,16.40
2018-09-19T21:40:33.949Z,16.40
2018-09-19T21:43:02.748Z,16.30
2018-09-19T21:45:31.513Z,16.30
2018-09-19T21:48:00.322Z,16.20
2018-09-19T21:50:28.940Z,16.10
2018-09-19T21:52:57.843Z,16.00
2018-09-19T21:55:26.683Z,16.00
2018-09-19T21:57:55.607Z,16.10
2018-09-19T22:00:24.583Z,16.00
2018-09-19T22:02:53.280Z,16.00
2018-09-19T22:05:22.145Z,15.90
2018-09-19T22:07:50.770Z,15.90
2018-09-19T22:10:19.279Z,15.90
2018-09-19T22:12:48.055Z,15.90
2018-09-19T22:15:16.751Z,15.90
2018-09-19T22:17:45.983Z,15.90
2018-09-19T22:20:14.843Z,15.90
2018-09-19T22:22:43.441Z,15.80
2018-09-19T22:25:12.104Z,15.80
2018-09-19T22:27:40.925Z,15.70
2018-09-19T22:30:09.433Z,15.60
2018-09-19T22:32:38.013Z,15.60
2018-09-19T22:35:06.688Z,15.40
2018-09-19T22:37:35.217Z,15.40
2018-09-19T22:40:03.780Z,15.30
2018-09-19T22:42:32.408Z,15.30
2018-09-19T22:45:00.979Z,15.30
2018-09-19T22:47:29.757Z,15.20
2018-09-19T22:49:58.663Z,15.20
2018-09-19T22:52:27.128Z,15.10
2018-09-19T22:54:55.991Z,15.10
2018-09-19T22:57:24.588Z,15.10
2018-09-19T22:59:53.228Z,15.10
2018-09-19T23:02:21.965Z,15.00
2018-09-19T23:04:50.616Z,15.00
2018-09-19T23:07:19.306Z,15.00
2018-09-19T23:09:47.843Z,14.90
2018-09-19T23:12:16.374Z,14.80
2018-09-19T23:14:45.074Z,14.80
2018-09-19T23:17:13.917Z,14.80
2018-09-19T23:19:42.424Z,14.80
2018-09-19T23:22:11.093Z,14.80
2018-09-19T23:24:39.745Z,14.80
2018-09-19T23:27:08.340Z,14.80
2018-09-19T23:29:37.345Z,14.70
2018-09-19T23:32:06.065Z,14.80
2018-09-19T23:34:34.588Z,14.70
2018-09-19T23:37:03.191Z,14.60
2018-09-19T23:39:31.715Z,14.50
2018-09-19T23:42:00.318Z,14.50
2018-09-19T23:44:28.859Z,14.60
2018-09-19T23:46:57.376Z,14.60
2018-09-19T23:49:26.388Z,14.50
2018-09-19T23:51:54.925Z,14.50
2018-09-19T23:54:23.412Z,14.40
2018-09-19T23:56:52.062Z,14.30
2018-09-19T23:59:20.620Z,14.30
